メインページ
METAR-TAF:

METAR-TAF

空港 :

ヴェラナ国際空港

マレ, モルディブ

緯度: 04-12N, 経度: 073-32E, 海抜: 2m

現時点の気象観測

当レポートは1時間24分前の02:00(UTC)に作成
変向風 1kt
気温 28°C
湿度 84%
気圧 1008 hPa
視程10km以上
高度1700ftの雲はほとんどない, 塔状積雲.
高度11000ftの千切れ雲あり

METAR: VRMM 210200Z VRB01KT 9999 FEW017TCU BKN110 28/25 Q1008 TEMPO 5000 -TSRA

時間: 08:24 (03:24 UTC)

予報

当レポートは4時間24分前の23:00(UTC)に作成
予報は21日の 00時(UTC)から 22日の 06時(UTC)まで有効
西/南西の風 12kt
視程10km以上
高度1700ftの雲はほとんどない
高度12000ftの千切れ雲あり
21日の 00時(UTC)から 21日の 07時(UTC)まで一時的に
西の風 15kt、最大30ktの突風を伴う
視程: 4000m
高度1700ftの雲は散在している, 積乱雲.
激しい雷雨, 雨

TAF: VRMM 202300Z 2100/2206 25012KT 9999 FEW017 BKN120 TEMPO 2100/2107 27015G30KT 4000 TSRA SCT017CB

4,000以上の空港の気象観測と天気予報(METAR報とTAF報)

利用可能な観測所は地図上に黄色い丸と赤い丸で示す。

丸の上にカーソルを重ねると観測所名を参照できる。

次にクリックすると気象観測と天気予報を参照できる。

マップの切り替え:黒色「×」印の緑ボタンをクリックして拡大、「-」印の緑ボタンをクリックして縮小、緑色の三角印をクリックして隣りの地図に切り替え


METAR-TAF: